Terminal Aerodrome Forecast
Issued by NWS Charleston, WV

Home | Current Version | Previous Version | Text Only | Print | Product List | Glossary On
Versions: 1 2 3 4 5 6 7 8 9 10 11 12 13 14 15 16 17 18 19 20 21 22
000
FTUS41 KRLX 191100
TAFHTS
TAF
KHTS 191122Z 1912/2012 10005KT P6SM BKN150 WS020/16030KT
     FM191300 10008KT P6SM OVC100
     FM191500 11014G27KT 4SM SHRA BR OVC025
     FM191800 11013G26KT 2SM SHRA BR OVC015
     FM200000 14010G20KT 4SM SHRA BR VCTS OVC025CB
     FM200300 19010G18KT 5SM -SHRA BR BKN025
     FM200800 19008KT P6SM BKN025
     FM200900 18006KT P6SM BKN120=

USA.gov is the U.S. government's official web portal to all federal, state and local government web resources and services.